• Join FlightAware (Why Join?)
  • Login
  • US Flag 
10:22PM EDT


 

Airport Tracker/Info


-or-


 

Live Flight TrackerFlight Track Log ✈ DAL5846 ✈ 20-Feb-2014 ✈ KLAX - KSFO

Flight Track Log - Related Links

Times and Time Zones

All times are in EST time to prevent confusion due to time zone crossing. See the DAL5846 flight status page for this flight to view local times or setup timezone preferences in your user account.

Time Position Orientation Groundspeed Altitude Reporting Facility
EST Latitude Longitude Course Direction KTS MPH feet Rate Location/Type
06:32PM 33.9469 -118.4481 296° West 153 176 1,500  Level Los Angeles Center
06:33PM 33.9397 -118.5269 264° West 231 266 3,700 2,760 Climbing Los Angeles Center
06:34PM 33.9331 -118.6219 265° West 263 303 7,300 3,240 Climbing Los Angeles Center
06:35PM 33.9225 -118.7169 262° West 284 327 10,400 2,220 Climbing Los Angeles Center
06:37PM 33.9106 -118.8214 262° West 316 364 12,000 1,980 Climbing Los Angeles Center
06:38PM 34.0772 -118.9180 296° West  Level FlightAware Approximate
06:38PM 33.9081 -118.9317 268° West 331 381 14,600  Level Los Angeles Center
06:39PM 33.9664 -119.0200 309° West 335 386 16,900 1,980 Climbing Los Angeles Center
06:40PM 34.0297 -119.1078 311° West 347 399 18,800 1,920 Climbing Los Angeles Center
06:41PM 34.1083 -119.2156 311° West 355 409 20,900 1,740 Climbing Los Angeles Center
06:42PM 34.1756 -119.3075 311° West 367 422 22,400 1,440 Climbing Los Angeles Center
06:43PM 34.2436 -119.4022 311° West 374 430 23,900 1,320 Climbing Los Angeles Center
06:44PM 34.3131 -119.4967 312° West 375 432 25,200 1,200 Climbing Los Angeles Center
06:45PM 34.3833 -119.5958 311° West 384 442 26,400 1,200 Climbing Los Angeles Center
06:46PM 34.4547 -119.6958 311° West 391 450 27,800 1,380 Climbing Los Angeles Center
06:47PM 34.5450 -119.8131 313° West 397 457 29,300 1,380 Climbing Los Angeles Center
06:48PM 34.6256 -119.8997 318° Northwest 403 464 30,700 1,260 Climbing Los Angeles Center
06:49PM 34.7089 -119.9897 318° Northwest 401 461 32,000 600 Climbing Los Angeles Center
06:50PM 34.7900 -120.0789 318° Northwest 395 455 32,000  Level Los Angeles Center
06:51PM 34.8808 -120.1772 318° Northwest 394 453 32,000 540 Level Los Angeles Center
06:52PM 34.9619 -120.2664 318° Northwest 397 457 33,200 960 Climbing Los Angeles Center
06:53PM 35.0422 -120.3556 318° Northwest 394 453 34,000 360 Climbing Los Angeles Center
06:54PM 35.1400 -120.4639 318° Northwest 397 457 34,000  Level Los Angeles Center
06:55PM 35.2211 -120.5547 318° Northwest 397 457 34,000  Level Los Angeles Center
06:56PM 35.3031 -120.6453 318° Northwest 398 458 34,000  Level Los Angeles Center
06:57PM 35.3839 -120.7364 317° Northwest 397 457 34,000  Level Los Angeles Center
06:58PM 35.4656 -120.8267 318° Northwest 397 457 34,000  Level Los Angeles Center
06:59PM 35.5467 -120.9164 318° Northwest 394 453 34,000  Level Los Angeles Center
07:00PM 35.6428 -121.0267 317° Northwest 393 452 34,000 -60 Level Los Angeles Center
07:01PM 35.7214 -121.1186 316° Northwest 391 450 33,900 -540 Descending Los Angeles Center
07:02PM 35.8022 -121.2103 317° Northwest 393 452 32,900 -1,200 Descending Los Angeles Center
07:04PM 35.9156 -121.3378 318° Northwest 394 453 31,000 -1,500 Descending Oakland Center
07:05PM 35.9967 -121.4308 317° Northwest 397 457 29,300 -1,680 Descending Oakland Center
07:06PM 36.0764 -121.5219 317° Northwest 395 455 27,600 -1,620 Descending Oakland Center
07:07PM 36.1642 -121.6239 317° Northwest 368 423 26,000 -840 Descending Oakland Center
07:08PM 36.2422 -121.7006 322° Northwest 362 417 26,000  Level Oakland Center
07:09PM 36.3258 -121.7700 326° Northwest 361 415 26,000  Level Oakland Center
07:10PM 36.4072 -121.8372 326° Northwest 358 412 26,000 -1,140 Level Oakland Center
07:11PM 36.4925 -121.9008 329° Northwest 358 412 23,700 -2,220 Descending Oakland Center
07:12PM 36.5917 -121.9208 351° North 358 412 21,500 -2,400 Descending Oakland Center
07:13PM 36.6500 -121.9333 350° North 347 399 20,000 -2,400 Descending Northern Cal TRACON
07:14PM 36.7500 -121.9667 345° North 337 388 17,900 -2,100 Descending Northern Cal TRACON
07:15PM 36.8333 -121.9833 351° North 329 379 15,900 -2,040 Descending Northern Cal TRACON
07:15PM 36.8839 -122.0003 345° North 329 379 14,800 -1,980 Descending Oakland Center
07:16PM 36.9706 -122.0247 347° North 321 369 12,800 -1,680 Descending Oakland Center
07:17PM 37.0550 -122.0467 348° North 311 358 11,400 -1,200 Descending Oakland Center
07:18PM 37.1367 -122.0675 349° North 302 348 10,400 -780 Descending Oakland Center
07:19PM 37.2122 -122.0878 348° North 280 322 9,900 -540 Descending Oakland Center
07:20PM 37.2767 -122.1044 348° North 242 278 9,400 -900 Descending Oakland Center
07:21PM 37.3372 -122.1208 348° North 225 259 8,100 -1,800 Descending Oakland Center
07:22PM 37.3964 -122.1361 348° North 217 250 5,800 -2,040 Descending Oakland Center
07:23PM 37.4647 -122.1561 347° North 213 245 4,000 -1,380 Descending Oakland Center
07:24PM 37.5178 -122.1808 340° North 207 238 3,000 -1,020 Descending Oakland Center
07:25PM 37.5544 -122.2375 309° West 211 243 2,000 -900 Descending Oakland Center
07:26PM 37.5797 -122.2828 305° West 179 206 1,200 -720 Descending Oakland Center
07:27PM 37.5967 -122.3236 298° West 147 169 600 -480 Descending Oakland Center
07:28PM 37.6144 -122.3661 298° West 137 158 300 -300 Descending Oakland Center
07:30PM 37.6167 -122.3667 322° Northwest  Level FlightAware Approximate